createdAt,value
2022-10-20T00:00:22.987Z,99899.72
2022-10-20T00:01:27.838Z,99891.31
2022-10-20T00:02:31.193Z,99902.44
2022-10-20T00:03:34.236Z,99906.53
2022-10-20T00:04:38.259Z,99909.50
2022-10-20T00:05:40.856Z,99907.39
2022-10-20T00:06:45.193Z,99900.25
2022-10-20T00:07:48.565Z,99911.28
2022-10-20T00:08:55.547Z,99919.72
2022-10-20T00:10:13.860Z,99913.44
2022-10-20T00:11:18.299Z,99908.93
2022-10-20T00:12:23.186Z,99913.67
2022-10-20T00:13:26.402Z,99916.31
2022-10-20T00:14:31.635Z,99912.73
2022-10-20T00:15:35.128Z,99910.02
2022-10-20T00:16:40.346Z,99912.55
2022-10-20T00:17:45.074Z,99911.62
2022-10-20T00:18:48.996Z,99911.45
2022-10-20T00:19:52.396Z,99922.17
2022-10-20T00:20:55.623Z,99908.87
2022-10-20T00:22:01.183Z,99913.22
2022-10-20T00:23:03.841Z,99906.08
2022-10-20T00:24:07.218Z,99913.65
2022-10-20T00:25:10.758Z,99915.70
2022-10-20T00:26:17.918Z,99908.87
2022-10-20T00:27:21.631Z,99907.71
2022-10-20T00:28:24.302Z,99905.56
2022-10-20T00:29:27.716Z,99914.47
2022-10-20T00:30:30.162Z,99912.17
2022-10-20T00:31:33.759Z,99913.73
2022-10-20T00:32:37.488Z,99911.95
2022-10-20T00:33:41.408Z,99909.47
2022-10-20T00:34:44.566Z,99913.18
2022-10-20T00:35:47.888Z,99919.67
2022-10-20T00:36:51.658Z,99915.89
2022-10-20T00:37:55.207Z,99914.81
2022-10-20T00:39:00.110Z,99912.55
2022-10-20T00:40:03.681Z,99912.88
2022-10-20T00:41:08.753Z,99913.33
2022-10-20T00:42:12.894Z,99919.52
2022-10-20T00:43:17.120Z,99918.75
2022-10-20T00:44:30.810Z,99908.14
2022-10-20T00:45:34.260Z,99918.22
2022-10-20T00:46:39.553Z,99914.11
2022-10-20T00:47:47.667Z,99922.08
2022-10-20T00:48:55.025Z,99924.89
2022-10-20T00:49:59.779Z,99914.89
2022-10-20T00:51:03.286Z,99921.94
2022-10-20T00:52:09.010Z,99932.31
2022-10-20T00:53:11.643Z,99927.42
2022-10-20T00:54:16.769Z,99927.81
2022-10-20T00:55:20.786Z,99932.45
2022-10-20T00:56:24.361Z,99932.16
2022-10-20T00:57:28.634Z,99939.20
2022-10-20T00:58:33.660Z,99933.23
2022-10-20T00:59:37.066Z,99935.41
2022-10-20T01:00:41.308Z,99938.64
2022-10-20T01:01:46.344Z,99933.30
2022-10-20T01:02:51.242Z,99935.57
2022-10-20T01:03:54.735Z,99940.83
2022-10-20T01:04:58.030Z,99934.64
2022-10-20T01:06:01.337Z,99936.95
2022-10-20T01:07:04.634Z,99937.88
2022-10-20T01:08:08.207Z,99936.03
2022-10-20T01:09:14.624Z,99940.36
2022-10-20T01:10:19.674Z,99937.10
2022-10-20T01:11:44.550Z,99935.40
2022-10-20T01:12:49.828Z,99948.11
2022-10-20T01:14:10.982Z,99932.87
2022-10-20T01:15:22.124Z,99934.95
2022-10-20T01:16:28.695Z,99940.59
2022-10-20T01:17:41.670Z,99944.48
2022-10-20T01:18:46.833Z,99941.07
2022-10-20T01:20:00.747Z,99936.25
2022-10-20T01:21:20.791Z,99938.17
2022-10-20T01:22:30.771Z,99942.14
2022-10-20T01:23:51.215Z,99938.50
2022-10-20T01:25:13.201Z,99943.62
2022-10-20T01:26:34.668Z,99939.66
2022-10-20T01:27:40.329Z,99942.92
2022-10-20T01:28:45.649Z,99937.23
2022-10-20T01:29:53.541Z,99941.44
2022-10-20T01:30:57.766Z,99938.02
2022-10-20T01:32:03.104Z,99936.64
2022-10-20T01:33:11.150Z,99941.66
2022-10-20T01:34:35.658Z,99943.48
2022-10-20T01:35:46.567Z,99939.84
2022-10-20T01:36:56.692Z,99935.34
2022-10-20T01:39:20.792Z,99945.03
2022-10-20T01:40:26.085Z,99946.38
2022-10-20T01:41:34.784Z,99947.63
2022-10-20T01:42:41.902Z,99945.42
2022-10-20T01:43:47.045Z,99950.46
2022-10-20T01:44:51.071Z,99947.91
2022-10-20T01:45:57.812Z,99946.54
2022-10-20T01:47:02.154Z,99950.62
2022-10-20T01:48:08.448Z,99953.91
2022-10-20T01:49:13.332Z,99940.64
2022-10-20T01:50:17.880Z,99942.42
2022-10-20T01:51:22.316Z,99950.49
2022-10-20T01:52:26.353Z,99947.16
2022-10-20T01:53:36.650Z,99950.34
2022-10-20T01:54:41.940Z,99953.59
2022-10-20T01:55:45.443Z,99955.26
2022-10-20T01:56:57.293Z,99948.13
2022-10-20T01:58:20.652Z,99953.25
2022-10-20T01:59:28.445Z,99951.62
2022-10-20T02:00:31.842Z,99952.55
2022-10-20T02:01:44.879Z,99958.45
2022-10-20T02:03:07.472Z,99964.73
2022-10-20T02:04:10.444Z,99953.69
2022-10-20T02:05:32.435Z,99960.05
2022-10-20T02:06:51.720Z,99958.09
2022-10-20T02:07:57.834Z,99951.91
2022-10-20T02:09:08.750Z,99956.05
2022-10-20T02:10:16.750Z,99962.08
2022-10-20T02:11:23.595Z,99963.84
2022-10-20T02:12:29.615Z,99964.98
2022-10-20T02:13:35.929Z,99955.10
2022-10-20T02:14:39.990Z,99959.17
2022-10-20T02:15:45.249Z,99971.43
2022-10-20T02:16:49.394Z,99964.95
2022-10-20T02:18:01.132Z,99969.69
2022-10-20T02:19:06.315Z,99968.80
2022-10-20T02:20:10.340Z,99970.97
2022-10-20T02:21:13.318Z,99965.57
2022-10-20T02:22:16.409Z,99973.91
2022-10-20T02:23:21.222Z,99964.80
2022-10-20T02:24:25.403Z,99971.08
2022-10-20T02:25:31.416Z,99966.19
2022-10-20T02:26:42.548Z,99968.45
2022-10-20T02:27:48.033Z,99970.77
2022-10-20T02:28:52.671Z,99967.89
2022-10-20T02:29:59.745Z,99968.80
2022-10-20T02:31:03.668Z,99969.41
2022-10-20T02:32:09.992Z,99976.01
2022-10-20T02:33:14.127Z,99974.80
2022-10-20T02:34:20.856Z,99976.51
2022-10-20T02:35:26.252Z,99979.30
2022-10-20T02:36:40.204Z,99976.63
2022-10-20T02:37:43.498Z,99974.38
2022-10-20T02:38:47.411Z,99969.53
2022-10-20T02:39:50.404Z,99974.65
2022-10-20T02:40:53.803Z,99979.30
2022-10-20T02:41:56.985Z,99978.45
2022-10-20T02:43:00.504Z,99983.36
2022-10-20T02:44:05.468Z,99979.61
2022-10-20T02:45:11.872Z,99985.50
2022-10-20T02:47:27.991Z,99978.53
2022-10-20T02:48:30.665Z,99976.47
2022-10-20T02:49:33.844Z,99983.52
2022-10-20T02:50:39.135Z,99985.73
2022-10-20T02:51:41.492Z,99983.44
2022-10-20T02:52:44.893Z,99988.63
2022-10-20T02:53:47.976Z,99988.79
2022-10-20T02:54:51.484Z,99986.50
2022-10-20T02:55:54.886Z,99992.19
2022-10-20T02:56:57.215Z,99984.58
2022-10-20T02:58:02.092Z,99985.42
2022-10-20T02:59:05.389Z,99989.38
2022-10-20T03:00:10.690Z,99996.11
2022-10-20T03:01:16.789Z,99994.14
2022-10-20T03:02:20.197Z,99994.50
2022-10-20T03:03:24.119Z,99991.27
2022-10-20T03:05:30.010Z,99989.48
2022-10-20T03:06:35.042Z,99984.72
2022-10-20T03:07:38.620Z,99985.65
2022-10-20T03:08:42.597Z,99992.87
2022-10-20T03:09:46.195Z,99989.80
2022-10-20T03:10:49.478Z,99995.41
2022-10-20T03:11:53.034Z,99994.98
2022-10-20T03:12:56.362Z,99988.63
2022-10-20T03:13:59.889Z,99991.20
2022-10-20T03:15:03.347Z,99993.18
2022-10-20T03:16:05.750Z,99997.83
2022-10-20T03:17:10.479Z,99993.03
2022-10-20T03:18:13.711Z,99986.77
2022-10-20T03:19:18.985Z,99993.03
2022-10-20T03:20:25.444Z,99989.91
2022-10-20T03:21:34.376Z,99995.11
2022-10-20T03:22:38.060Z,99990.84
2022-10-20T03:23:44.525Z,99995.84
2022-10-20T03:24:48.110Z,99999.92
2022-10-20T03:25:51.511Z,100004.03
2022-10-20T03:26:55.163Z,100001.23
2022-10-20T03:27:58.381Z,100006.23
2022-10-20T03:29:06.410Z,99998.61
2022-10-20T03:30:10.546Z,99994.48
2022-10-20T03:31:14.257Z,100008.22
2022-10-20T03:32:17.961Z,100008.22
2022-10-20T03:33:21.779Z,99999.17
2022-10-20T03:34:26.328Z,100003.59
2022-10-20T03:35:29.951Z,100004.19
2022-10-20T03:36:33.246Z,100007.45
2022-10-20T03:37:35.600Z,100011.00
2022-10-20T03:38:41.906Z,100005.95
2022-10-20T03:39:44.584Z,100003.88
2022-10-20T03:40:47.998Z,100011.16
2022-10-20T03:41:51.281Z,100008.87
2022-10-20T03:42:56.363Z,100009.53
2022-10-20T03:43:59.549Z,100006.44
2022-10-20T03:45:05.697Z,100011.02
2022-10-20T03:46:10.242Z,100007.45
2022-10-20T03:47:14.902Z,100005.73
2022-10-20T03:48:17.650Z,100006.75
2022-10-20T03:49:21.050Z,100012.56
2022-10-20T03:50:24.451Z,100012.14
2022-10-20T03:51:27.956Z,100009.97
2022-10-20T03:52:31.773Z,100008.70
2022-10-20T03:53:35.174Z,100007.26
2022-10-20T03:54:38.782Z,100008.50
2022-10-20T03:55:42.002Z,100006.72
2022-10-20T03:56:45.609Z,100009.16
2022-10-20T03:57:49.010Z,100002.99
2022-10-20T03:58:52.323Z,100005.20
2022-10-20T03:59:56.754Z,100011.95
2022-10-20T04:00:59.190Z,100012.72
2022-10-20T04:02:03.465Z,100007.92
2022-10-20T04:03:06.718Z,100001.56
2022-10-20T04:04:10.644Z,100002.67
2022-10-20T04:05:15.711Z,100008.03
2022-10-20T04:06:19.017Z,100001.32
2022-10-20T04:07:21.470Z,100013.04
2022-10-20T04:08:25.877Z,100013.20
2022-10-20T04:09:28.375Z,100014.90
2022-10-20T04:10:31.775Z,100011.60
2022-10-20T04:11:35.279Z,100011.06
2022-10-20T04:12:39.447Z,100011.09
2022-10-20T04:13:42.916Z,100015.44
2022-10-20T04:14:46.532Z,100020.75
2022-10-20T04:15:49.926Z,100018.27
2022-10-20T04:16:52.480Z,100018.77
2022-10-20T04:18:15.522Z,100017.45
2022-10-20T04:19:18.922Z,100015.73
2022-10-20T04:20:22.213Z,100022.72
2022-10-20T04:21:26.762Z,100017.22
2022-10-20T04:22:31.267Z,100020.55
2022-10-20T04:23:34.933Z,100016.08
2022-10-20T04:24:38.333Z,100014.29
2022-10-20T04:25:45.310Z,100028.69
2022-10-20T04:27:52.094Z,100026.73
2022-10-20T04:28:56.603Z,100027.13
2022-10-20T04:29:59.294Z,100035.80
2022-10-20T04:31:02.485Z,100030.00
2022-10-20T04:32:06.618Z,100028.38
2022-10-20T04:33:10.238Z,100028.52
2022-10-20T04:34:15.298Z,100026.03
2022-10-20T04:35:18.593Z,100028.32
2022-10-20T04:36:21.368Z,100034.64
2022-10-20T04:37:24.873Z,100033.19
2022-10-20T04:38:31.094Z,100035.34
2022-10-20T04:39:35.196Z,100031.92
2022-10-20T04:40:39.160Z,100034.19
2022-10-20T04:41:42.977Z,100037.12
2022-10-20T04:42:48.261Z,100032.23
2022-10-20T04:43:55.512Z,100031.99
2022-10-20T04:45:00.516Z,100037.97
2022-10-20T04:46:08.121Z,100048.66
2022-10-20T04:47:10.393Z,100033.17
2022-10-20T04:48:14.595Z,100037.73
2022-10-20T04:49:16.797Z,100041.51
2022-10-20T04:50:20.313Z,100047.66
2022-10-20T04:51:26.787Z,100055.17
2022-10-20T04:52:30.769Z,100047.95
2022-10-20T04:53:34.057Z,100050.83
2022-10-20T04:54:37.884Z,100049.27
2022-10-20T04:55:41.170Z,100058.27
2022-10-20T04:56:43.432Z,100052.70
2022-10-20T04:57:46.938Z,100057.12
2022-10-20T04:58:52.833Z,100056.05
2022-10-20T04:59:56.025Z,100059.95
2022-10-20T05:01:02.782Z,100061.22
2022-10-20T05:02:06.108Z,100065.71
2022-10-20T05:04:17.053Z,100063.85
2022-10-20T05:05:20.546Z,100061.70
2022-10-20T05:06:25.631Z,100061.20
2022-10-20T05:07:29.867Z,100059.83
2022-10-20T05:08:33.327Z,100063.53
2022-10-20T05:09:37.538Z,100065.23
2022-10-20T05:10:40.834Z,100067.73
2022-10-20T05:11:45.243Z,100063.63
2022-10-20T05:12:48.424Z,100073.80
2022-10-20T05:13:54.961Z,100073.56
2022-10-20T05:14:58.359Z,100081.14
2022-10-20T05:16:01.552Z,100081.22
2022-10-20T05:17:07.893Z,100078.14
2022-10-20T05:18:11.804Z,100080.59
2022-10-20T05:19:14.478Z,100083.33
2022-10-20T05:20:17.983Z,100080.78
2022-10-20T05:21:23.043Z,100079.73
2022-10-20T05:22:26.134Z,100077.88
2022-10-20T05:23:29.439Z,100079.33
2022-10-20T05:24:32.943Z,100080.96
2022-10-20T05:25:39.173Z,100081.33
2022-10-20T05:26:42.344Z,100080.03
2022-10-20T05:27:45.727Z,100079.84
2022-10-20T05:28:49.148Z,100073.38
2022-10-20T05:29:52.316Z,100084.34
2022-10-20T05:30:57.810Z,100082.04
2022-10-20T05:32:01.378Z,100076.95
2022-10-20T05:33:04.739Z,100083.63
2022-10-20T05:34:08.458Z,100083.77
2022-10-20T05:35:11.856Z,100083.63
2022-10-20T05:36:19.356Z,100085.70
2022-10-20T05:37:24.189Z,100088.05
2022-10-20T05:38:26.858Z,100084.01
2022-10-20T05:39:30.786Z,100092.58
2022-10-20T05:40:34.593Z,100086.80
2022-10-20T05:41:38.956Z,100088.34
2022-10-20T05:42:42.346Z,100097.48
2022-10-20T05:43:50.850Z,100093.58
2022-10-20T05:44:55.668Z,100099.48
2022-10-20T05:46:02.017Z,100099.41
2022-10-20T05:47:06.706Z,100098.44
2022-10-20T05:48:10.212Z,100097.87
2022-10-20T05:49:16.946Z,100103.68
2022-10-20T05:50:21.284Z,100109.02
2022-10-20T05:51:25.771Z,100106.09
2022-10-20T05:52:28.409Z,100103.54
2022-10-20T05:53:32.644Z,100108.48
2022-10-20T05:54:36.257Z,100103.92
2022-10-20T05:55:40.278Z,100098.70
2022-10-20T05:56:44.100Z,100109.36
2022-10-20T05:57:50.146Z,100102.45
2022-10-20T05:58:54.588Z,100107.58
2022-10-20T05:59:57.987Z,100107.88
2022-10-20T06:01:05.315Z,100112.83
2022-10-20T06:02:11.745Z,100107.12
2022-10-20T06:03:17.437Z,100103.97
2022-10-20T06:04:23.771Z,100111.48
2022-10-20T06:05:28.317Z,100101.34
2022-10-20T06:06:32.220Z,100106.53
2022-10-20T06:07:34.609Z,100114.38
2022-10-20T06:08:37.249Z,100111.41
2022-10-20T06:09:41.095Z,100104.83
2022-10-20T06:10:44.391Z,100110.81
2022-10-20T06:11:48.941Z,100108.33
2022-10-20T06:12:55.361Z,100113.66
2022-10-20T06:13:58.772Z,100113.78
2022-10-20T06:15:02.067Z,100107.20
2022-10-20T06:16:06.579Z,100120.34
2022-10-20T06:17:09.171Z,100114.25
2022-10-20T06:18:12.791Z,100114.70
2022-10-20T06:19:16.703Z,100109.25
2022-10-20T06:20:20.485Z,100116.45
2022-10-20T06:21:25.396Z,100112.73
2022-10-20T06:22:29.944Z,100108.66
2022-10-20T06:23:33.553Z,100119.83
2022-10-20T06:24:35.908Z,100111.03
2022-10-20T06:25:39.519Z,100117.01
2022-10-20T06:26:43.772Z,100117.19
2022-10-20T06:27:47.364Z,100112.00
2022-10-20T06:28:54.684Z,100118.79
2022-10-20T06:30:01.155Z,100113.66
2022-10-20T06:31:12.019Z,100123.16
2022-10-20T06:32:16.427Z,100121.57
2022-10-20T06:33:23.375Z,100118.13
2022-10-20T06:34:29.175Z,100120.23
2022-10-20T06:35:31.420Z,100119.13
2022-10-20T06:36:35.876Z,100119.79
2022-10-20T06:37:39.107Z,100123.44
2022-10-20T06:38:41.843Z,100128.41
2022-10-20T06:39:45.871Z,100125.84
2022-10-20T06:40:50.243Z,100128.15
2022-10-20T06:41:54.416Z,100129.48
2022-10-20T06:42:57.846Z,100118.31
2022-10-20T06:44:03.210Z,100132.98
2022-10-20T06:45:14.380Z,100132.98
2022-10-20T06:46:19.954Z,100129.64
2022-10-20T06:47:23.137Z,100132.16
2022-10-20T06:48:26.887Z,100133.34
2022-10-20T06:49:30.355Z,100136.91
2022-10-20T06:50:33.771Z,100133.75
2022-10-20T06:51:40.749Z,100142.05
2022-10-20T06:52:44.221Z,100145.33
2022-10-20T06:53:47.621Z,100142.45
2022-10-20T06:54:50.843Z,100147.01
2022-10-20T06:55:58.798Z,100137.32
2022-10-20T06:57:01.818Z,100140.66
2022-10-20T06:58:04.148Z,100145.22
2022-10-20T06:59:07.521Z,100154.09
2022-10-20T07:00:12.676Z,100148.36
2022-10-20T07:01:20.903Z,100152.95
2022-10-20T07:02:24.217Z,100151.67
2022-10-20T07:03:28.347Z,100158.65
2022-10-20T07:04:33.116Z,100149.09
2022-10-20T07:05:36.711Z,100156.54
2022-10-20T07:06:40.527Z,100152.20
2022-10-20T07:07:43.660Z,100157.73
2022-10-20T07:10:02.480Z,100150.95
2022-10-20T07:11:07.922Z,100151.96
2022-10-20T07:12:11.113Z,100156.01
2022-10-20T07:13:14.524Z,100158.48
2022-10-20T07:14:19.568Z,100161.73
2022-10-20T07:15:24.356Z,100156.63
2022-10-20T07:16:29.116Z,100156.00
2022-10-20T07:17:32.517Z,100162.36
2022-10-20T07:18:35.425Z,100159.09
2022-10-20T07:19:38.156Z,100163.91
2022-10-20T07:20:41.450Z,100164.84
2022-10-20T07:21:45.915Z,100162.06
2022-10-20T07:22:48.887Z,100163.67
2022-10-20T07:23:56.502Z,100164.77
2022-10-20T07:25:01.748Z,100163.98
2022-10-20T07:26:09.349Z,100161.83
2022-10-20T07:27:12.507Z,100155.45
2022-10-20T07:28:18.520Z,100167.23
2022-10-20T07:29:22.289Z,100168.94
2022-10-20T07:30:25.749Z,100167.77
2022-10-20T07:31:30.704Z,100169.34
2022-10-20T07:32:35.487Z,100162.21
2022-10-20T07:33:38.903Z,100162.88
2022-10-20T07:34:41.567Z,100163.77
2022-10-20T07:35:44.857Z,100166.63
2022-10-20T07:36:50.807Z,100162.28
2022-10-20T07:37:55.084Z,100169.18
2022-10-20T07:38:59.105Z,100167.19
2022-10-20T07:40:02.307Z,100159.28
2022-10-20T07:41:06.440Z,100168.20
2022-10-20T07:42:09.668Z,100175.25
2022-10-20T07:43:12.926Z,100165.56
2022-10-20T07:44:15.910Z,100168.61
2022-10-20T07:45:21.786Z,100171.96
2022-10-20T07:46:28.158Z,100169.41
2022-10-20T07:47:34.118Z,100173.05
2022-10-20T07:48:36.926Z,100176.17
2022-10-20T07:49:44.707Z,100169.12
2022-10-20T07:50:45.691Z,100169.34
2022-10-20T07:51:48.069Z,100167.41
2022-10-20T07:52:54.602Z,100171.91
2022-10-20T07:54:01.658Z,100171.83
2022-10-20T07:55:17.664Z,100174.92
2022-10-20T07:56:11.059Z,100172.69
2022-10-20T07:57:16.131Z,100170.11
2022-10-20T07:58:19.443Z,100171.98
2022-10-20T07:59:27.782Z,100172.46
2022-10-20T08:00:31.295Z,100175.95
2022-10-20T08:01:35.649Z,100182.00
2022-10-20T08:02:40.799Z,100171.45
2022-10-20T08:03:43.232Z,100172.91
2022-10-20T08:04:47.604Z,100174.62
2022-10-20T08:05:50.135Z,100171.42
2022-10-20T08:06:54.265Z,100171.69
2022-10-20T08:07:58.625Z,100174.47
2022-10-20T08:09:03.382Z,100174.55
2022-10-20T08:10:08.374Z,100172.54
2022-10-20T08:11:10.795Z,100176.77
2022-10-20T08:12:13.045Z,100172.20
2022-10-20T08:13:16.446Z,100178.55
2022-10-20T08:14:20.160Z,100166.41
2022-10-20T08:15:31.403Z,100172.54
2022-10-20T08:17:59.188Z,100169.90
2022-10-20T08:19:16.060Z,100171.12
2022-10-20T08:21:38.338Z,100174.32
2022-10-20T08:22:45.077Z,100175.17
2022-10-20T08:23:50.127Z,100183.16
2022-10-20T08:24:57.311Z,100172.91
2022-10-20T08:26:00.897Z,100177.55
2022-10-20T08:27:07.807Z,100177.48
2022-10-20T08:28:11.068Z,100184.80
2022-10-20T08:29:15.391Z,100171.35
2022-10-20T08:30:24.853Z,100191.36
2022-10-20T08:31:24.803Z,100184.87
2022-10-20T08:32:28.099Z,100184.23
2022-10-20T08:33:31.814Z,100181.75
2022-10-20T08:34:34.380Z,100189.11
2022-10-20T08:35:41.569Z,100187.66
2022-10-20T08:36:52.668Z,100178.55
2022-10-20T08:37:58.682Z,100190.67
2022-10-20T08:39:05.245Z,100189.73
2022-10-20T08:40:08.407Z,100192.78
2022-10-20T08:41:24.871Z,100202.33
2022-10-20T08:42:33.997Z,100202.05
2022-10-20T08:43:39.801Z,100207.81
2022-10-20T08:44:44.945Z,100194.31
2022-10-20T08:45:48.167Z,100193.70
2022-10-20T08:46:51.755Z,100198.98
2022-10-20T08:47:59.576Z,100206.03
2022-10-20T08:49:04.961Z,100201.14
2022-10-20T08:50:12.547Z,100206.83
2022-10-20T08:51:20.735Z,100203.56
2022-10-20T08:52:25.293Z,100201.91
2022-10-20T08:53:31.295Z,100210.06
2022-10-20T08:54:35.008Z,100208.27
2022-10-20T08:55:38.199Z,100211.00
2022-10-20T08:56:42.578Z,100210.45
2022-10-20T08:57:47.822Z,100211.77
2022-10-20T08:58:52.828Z,100207.98
2022-10-20T08:59:58.069Z,100213.63
2022-10-20T09:01:01.052Z,100211.47
2022-10-20T09:02:06.225Z,100210.14
2022-10-20T09:03:17.462Z,100212.31
2022-10-20T09:04:33.787Z,100220.86
2022-10-20T09:05:39.213Z,100228.42
2022-10-20T09:06:44.077Z,100221.08
2022-10-20T09:07:49.666Z,100230.86
2022-10-20T09:08:54.826Z,100230.55
2022-10-20T09:10:05.744Z,100233.35
2022-10-20T09:11:09.942Z,100228.83
2022-10-20T09:12:15.159Z,100223.55
2022-10-20T09:13:22.632Z,100227.04
2022-10-20T09:14:27.132Z,100226.89
2022-10-20T09:15:30.495Z,100231.59
2022-10-20T09:16:42.010Z,100238.71
2022-10-20T09:17:44.816Z,100235.73
2022-10-20T09:18:49.982Z,100237.00
2022-10-20T09:19:54.652Z,100228.94
2022-10-20T09:21:05.608Z,100243.73
2022-10-20T09:22:09.071Z,100238.46
2022-10-20T09:23:39.304Z,100238.23
2022-10-20T09:24:24.472Z,100237.30
2022-10-20T09:25:28.039Z,100233.95
2022-10-20T09:26:57.607Z,100236.84
2022-10-20T09:27:47.698Z,100235.73
2022-10-20T09:29:12.047Z,100233.58
2022-10-20T09:30:02.539Z,100243.48
2022-10-20T09:31:07.638Z,100241.34
2022-10-20T09:33:32.168Z,100246.77
2022-10-20T09:34:35.882Z,100235.06
2022-10-20T09:35:40.206Z,100248.00
2022-10-20T09:36:44.036Z,100243.13
2022-10-20T09:37:49.321Z,100252.83
2022-10-20T09:38:51.773Z,100247.00
2022-10-20T09:39:57.690Z,100247.23
2022-10-20T09:41:06.510Z,100256.33
2022-10-20T09:42:15.135Z,100252.98
2022-10-20T09:43:19.277Z,100255.41
2022-10-20T09:44:23.189Z,100255.91
2022-10-20T09:45:30.486Z,100258.19
2022-10-20T09:46:42.430Z,100249.48
2022-10-20T09:47:47.280Z,100265.09
2022-10-20T09:48:52.562Z,100270.73
2022-10-20T09:50:00.923Z,100266.63
2022-10-20T09:51:06.546Z,100268.41
2022-10-20T09:52:21.575Z,100253.51
2022-10-20T09:53:35.837Z,100267.19
2022-10-20T09:54:39.551Z,100258.33
2022-10-20T09:55:43.672Z,100256.55
2022-10-20T09:56:49.139Z,100263.98
2022-10-20T09:57:54.130Z,100270.73
2022-10-20T09:58:59.446Z,100266.63
2022-10-20T10:00:13.507Z,100262.31
2022-10-20T10:01:11.589Z,100262.20
2022-10-20T10:02:16.933Z,100262.41
2022-10-20T10:03:25.660Z,100264.66
2022-10-20T10:04:36.164Z,100266.47
2022-10-20T10:05:40.075Z,100264.98
2022-10-20T10:06:46.203Z,100267.63
2022-10-20T10:08:00.084Z,100271.52
2022-10-20T10:09:07.073Z,100271.75
2022-10-20T10:10:21.473Z,100279.97
2022-10-20T10:11:25.910Z,100278.30
2022-10-20T10:12:29.526Z,100274.73
2022-10-20T10:13:36.209Z,100287.67
2022-10-20T10:14:42.490Z,100268.48
2022-10-20T10:15:46.206Z,100274.02
2022-10-20T10:16:50.795Z,100269.39
2022-10-20T10:17:53.829Z,100280.86
2022-10-20T10:19:06.119Z,100270.06
2022-10-20T10:20:14.324Z,100274.48
2022-10-20T10:21:18.142Z,100274.56
2022-10-20T10:22:21.754Z,100273.87
2022-10-20T10:23:26.916Z,100265.98
2022-10-20T10:24:35.239Z,100280.73
2022-10-20T10:25:44.305Z,100271.02
2022-10-20T10:26:49.039Z,100274.41
2022-10-20T10:28:07.054Z,100275.66
2022-10-20T10:29:12.123Z,100273.32
2022-10-20T10:30:17.626Z,100277.13
2022-10-20T10:31:26.237Z,100271.42
2022-10-20T10:32:34.068Z,100275.58
2022-10-20T10:33:37.571Z,100284.85
2022-10-20T10:34:46.568Z,100279.65
2022-10-20T10:35:50.082Z,100283.19
2022-10-20T10:36:53.483Z,100280.20
2022-10-20T10:37:58.135Z,100278.41
2022-10-20T10:39:02.372Z,100284.94
2022-10-20T10:40:13.965Z,100279.97
2022-10-20T10:41:21.401Z,100291.73
2022-10-20T10:42:31.679Z,100277.97
2022-10-20T10:43:46.264Z,100282.64
2022-10-20T10:45:08.791Z,100282.95
2022-10-20T10:46:14.268Z,100286.91
2022-10-20T10:47:26.444Z,100285.44
2022-10-20T10:48:47.287Z,100292.12
2022-10-20T10:49:52.521Z,100299.62
2022-10-20T10:51:02.273Z,100292.72
2022-10-20T10:52:17.878Z,100286.25
2022-10-20T10:53:39.470Z,100290.60
2022-10-20T10:54:59.185Z,100287.09
2022-10-20T10:56:23.824Z,100289.01
2022-10-20T10:57:45.710Z,100293.83
2022-10-20T10:59:05.932Z,100289.20
2022-10-20T11:00:11.113Z,100288.13
2022-10-20T11:01:27.571Z,100286.48
2022-10-20T11:02:49.980Z,100296.89
2022-10-20T11:04:01.019Z,100294.00
2022-10-20T11:05:22.270Z,100291.34
2022-10-20T11:06:27.555Z,100294.41
2022-10-20T11:07:36.715Z,100294.42
2022-10-20T11:08:51.092Z,100299.98
2022-10-20T11:09:56.445Z,100304.14
2022-10-20T11:11:02.040Z,100293.31
2022-10-20T11:12:24.065Z,100310.61
2022-10-20T11:13:35.372Z,100316.02
2022-10-20T11:14:48.799Z,100303.46
2022-10-20T11:16:09.397Z,100300.56
2022-10-20T11:17:31.100Z,100306.05
2022-10-20T11:18:36.806Z,100302.84
2022-10-20T11:19:53.367Z,100303.62
2022-10-20T11:20:57.491Z,100311.20
2022-10-20T11:22:10.574Z,100308.37
2022-10-20T11:23:19.342Z,100307.36
2022-10-20T11:24:42.613Z,100314.51
2022-10-20T11:25:50.899Z,100315.09
2022-10-20T11:26:55.021Z,100324.80
2022-10-20T11:28:00.443Z,100325.62
2022-10-20T11:29:05.279Z,100314.23
2022-10-20T11:30:17.348Z,100310.50
2022-10-20T11:31:31.184Z,100317.03
2022-10-20T11:32:39.083Z,100321.62
2022-10-20T11:33:45.818Z,100324.67
2022-10-20T11:35:03.017Z,100329.73
2022-10-20T11:36:08.103Z,100327.23
2022-10-20T11:37:12.731Z,100339.17
2022-10-20T11:38:24.393Z,100329.31
2022-10-20T11:39:47.640Z,100334.64
2022-10-20T11:40:53.964Z,100322.81
2022-10-20T11:41:59.246Z,100337.70
2022-10-20T11:43:19.565Z,100339.64
2022-10-20T11:44:28.282Z,100325.34
2022-10-20T11:45:47.039Z,100337.16
2022-10-20T11:46:52.188Z,100331.09
2022-10-20T11:48:00.122Z,100331.92
2022-10-20T11:49:04.159Z,100328.41
2022-10-20T11:50:08.786Z,100342.01
2022-10-20T11:51:32.152Z,100335.68
2022-10-20T11:52:45.981Z,100334.75
2022-10-20T11:53:57.006Z,100340.97
2022-10-20T11:55:04.906Z,100343.81
2022-10-20T11:56:16.135Z,100336.30
2022-10-20T11:57:38.236Z,100342.48
2022-10-20T11:58:42.894Z,100346.14
2022-10-20T11:59:57.575Z,100335.80
2022-10-20T12:01:02.127Z,100343.32
2022-10-20T12:02:23.480Z,100341.89
2022-10-20T12:03:37.326Z,100342.98
2022-10-20T12:04:41.989Z,100340.39
2022-10-20T12:05:58.832Z,100348.20
2022-10-20T12:07:21.198Z,100348.08
2022-10-20T12:08:30.278Z,100353.43
2022-10-20T12:09:34.728Z,100343.34
2022-10-20T12:10:46.118Z,100346.72
2022-10-20T12:11:51.275Z,100354.30
2022-10-20T12:12:55.396Z,100355.96
2022-10-20T12:14:00.791Z,100361.95
2022-10-20T12:15:06.523Z,100352.63
2022-10-20T12:16:12.422Z,100359.82
2022-10-20T12:17:16.741Z,100360.21
2022-10-20T12:18:26.720Z,100364.20
2022-10-20T12:19:31.573Z,100367.67
2022-10-20T12:20:36.027Z,100377.08
2022-10-20T12:21:56.555Z,100378.21
2022-10-20T12:22:59.946Z,100375.55
2022-10-20T12:24:04.816Z,100377.03
2022-10-20T12:25:10.205Z,100382.72
2022-10-20T12:26:33.164Z,100384.02
2022-10-20T12:27:37.886Z,100381.22
2022-10-20T12:28:41.822Z,100384.87
2022-10-20T12:29:46.985Z,100396.30
2022-10-20T12:31:01.363Z,100393.98
2022-10-20T12:32:28.502Z,100394.14
2022-10-20T12:33:40.627Z,100395.44
2022-10-20T12:34:46.033Z,100406.48
2022-10-20T12:36:02.279Z,100407.05
2022-10-20T12:37:07.460Z,100406.27
2022-10-20T12:38:11.473Z,100413.41
2022-10-20T12:39:15.795Z,100410.58
2022-10-20T12:40:21.103Z,100409.28
2022-10-20T12:41:31.085Z,100414.01
2022-10-20T12:42:36.261Z,100413.22
2022-10-20T12:43:46.765Z,100412.91
2022-10-20T12:44:49.645Z,100419.05
2022-10-20T12:45:56.325Z,100417.11
2022-10-20T12:47:07.519Z,100420.14
2022-10-20T12:48:13.743Z,100418.82
2022-10-20T12:49:18.797Z,100411.36
2022-10-20T12:50:24.847Z,100422.00
2022-10-20T12:51:33.966Z,100427.29
2022-10-20T12:52:39.025Z,100416.42